sensor_id;sensor_type;location;lat;lon;timestamp;pressure;altitude;pressure_sealevel;temperature;humidity
63447;BME280;49577;49.872;6.190;2023-07-31T00:00:39;99388.61;;;17.60;67.95
63447;BME280;49577;49.872;6.190;2023-07-31T00:03:04;99381.00;;;17.51;69.46
63447;BME280;49577;49.872;6.190;2023-07-31T00:05:29;99387.08;;;17.40;70.53
63447;BME280;49577;49.872;6.190;2023-07-31T00:07:55;99388.67;;;17.31;71.58
63447;BME280;49577;49.872;6.190;2023-07-31T00:10:20;99382.17;;;17.18;72.50
63447;BME280;49577;49.872;6.190;2023-07-31T00:12:45;99376.58;;;17.04;73.69
63447;BME280;49577;49.872;6.190;2023-07-31T00:15:10;99372.53;;;16.92;73.94
63447;BME280;49577;49.872;6.190;2023-07-31T00:17:36;99369.23;;;16.90;74.62
63447;BME280;49577;49.872;6.190;2023-07-31T00:20:01;99368.62;;;16.89;74.92
63447;BME280;49577;49.872;6.190;2023-07-31T00:22:27;99366.30;;;16.85;75.08
63447;BME280;49577;49.872;6.190;2023-07-31T00:24:52;99360.68;;;16.81;75.43
63447;BME280;49577;49.872;6.190;2023-07-31T00:27:17;99356.97;;;16.80;76.00
63447;BME280;49577;49.872;6.190;2023-07-31T00:29:42;99354.40;;;16.77;76.20
63447;BME280;49577;49.872;6.190;2023-07-31T00:32:08;99345.23;;;16.75;76.66
63447;BME280;49577;49.872;6.190;2023-07-31T00:34:33;99339.27;;;16.72;76.85
63447;BME280;49577;49.872;6.190;2023-07-31T00:36:58;99339.33;;;16.70;77.33
63447;BME280;49577;49.872;6.190;2023-07-31T00:39:23;99341.43;;;16.70;77.83
63447;BME280;49577;49.872;6.190;2023-07-31T00:41:49;99336.95;;;16.68;78.01
63447;BME280;49577;49.872;6.190;2023-07-31T00:44:14;99328.90;;;16.68;77.82
63447;BME280;49577;49.872;6.190;2023-07-31T00:46:39;99330.19;;;16.65;77.75
63447;BME280;49577;49.872;6.190;2023-07-31T00:49:04;99330.09;;;16.64;78.21
63447;BME280;49577;49.872;6.190;2023-07-31T00:51:30;99332.08;;;16.64;78.30
63447;BME280;49577;49.872;6.190;2023-07-31T00:53:55;99332.33;;;16.62;78.12
63447;BME280;49577;49.872;6.190;2023-07-31T00:56:21;99328.29;;;16.61;78.91
63447;BME280;49577;49.872;6.190;2023-07-31T00:58:47;99316.55;;;16.60;78.91
63447;BME280;49577;49.872;6.190;2023-07-31T01:01:12;99314.72;;;16.59;78.88
63447;BME280;49577;49.872;6.190;2023-07-31T01:03:37;99318.25;;;16.59;79.19
63447;BME280;49577;49.872;6.190;2023-07-31T01:06:10;99313.96;;;16.58;79.12
63447;BME280;49577;49.872;6.190;2023-07-31T01:08:51;99312.75;;;16.54;78.94
63447;BME280;49577;49.872;6.190;2023-07-31T01:11:21;99313.89;;;16.51;79.00
63447;BME280;49577;49.872;6.190;2023-07-31T01:13:47;99309.06;;;16.48;79.10
63447;BME280;49577;49.872;6.190;2023-07-31T01:16:12;99310.48;;;16.48;79.01
63447;BME280;49577;49.872;6.190;2023-07-31T01:18:37;99305.51;;;16.50;79.38
63447;BME280;49577;49.872;6.190;2023-07-31T01:26:36;99301.34;;;16.54;79.21
63447;BME280;49577;49.872;6.190;2023-07-31T01:29:10;99303.98;;;16.54;79.17
63447;BME280;49577;49.872;6.190;2023-07-31T01:31:38;99301.23;;;16.53;79.32
63447;BME280;49577;49.872;6.190;2023-07-31T01:34:04;99297.84;;;16.53;79.50
63447;BME280;49577;49.872;6.190;2023-07-31T01:36:31;99300.71;;;16.53;79.45
63447;BME280;49577;49.872;6.190;2023-07-31T01:39:00;99298.19;;;16.53;79.29
63447;BME280;49577;49.872;6.190;2023-07-31T01:41:26;99293.15;;;16.54;79.23
63447;BME280;49577;49.872;6.190;2023-07-31T01:43:51;99292.90;;;16.53;79.60
63447;BME280;49577;49.872;6.190;2023-07-31T01:46:16;99288.25;;;16.52;79.48
63447;BME280;49577;49.872;6.190;2023-07-31T01:48:41;99291.10;;;16.52;79.36
63447;BME280;49577;49.872;6.190;2023-07-31T01:51:06;99291.95;;;16.54;79.58
63447;BME280;49577;49.872;6.190;2023-07-31T01:53:32;99284.43;;;16.55;79.37
63447;BME280;49577;49.872;6.190;2023-07-31T01:55:57;99278.05;;;16.56;79.11
63447;BME280;49577;49.872;6.190;2023-07-31T01:58:22;99274.27;;;16.56;79.22
63447;BME280;49577;49.872;6.190;2023-07-31T02:00:47;99277.22;;;16.59;79.22
63447;BME280;49577;49.872;6.190;2023-07-31T02:03:13;99273.52;;;16.61;79.17
63447;BME280;49577;49.872;6.190;2023-07-31T02:05:47;99270.79;;;16.62;78.95
63447;BME280;49577;49.872;6.190;2023-07-31T02:08:13;99273.71;;;16.62;78.92
63447;BME280;49577;49.872;6.190;2023-07-31T02:10:38;99273.09;;;16.63;79.02
63447;BME280;49577;49.872;6.190;2023-07-31T02:13:03;99271.27;;;16.62;79.11
63447;BME280;49577;49.872;6.190;2023-07-31T02:15:29;99267.66;;;16.63;79.34
63447;BME280;49577;49.872;6.190;2023-07-31T02:17:54;99271.71;;;16.65;79.46
63447;BME280;49577;49.872;6.190;2023-07-31T02:20:20;99268.35;;;16.65;79.21
63447;BME280;49577;49.872;6.190;2023-07-31T02:22:45;99265.00;;;16.65;79.33
63447;BME280;49577;49.872;6.190;2023-07-31T02:25:10;99261.80;;;16.65;79.19
63447;BME280;49577;49.872;6.190;2023-07-31T02:27:35;99260.80;;;16.64;78.99
63447;BME280;49577;49.872;6.190;2023-07-31T02:30:00;99261.49;;;16.65;78.95
63447;BME280;49577;49.872;6.190;2023-07-31T02:32:25;99262.14;;;16.65;79.13
63447;BME280;49577;49.872;6.190;2023-07-31T02:34:51;99258.33;;;16.64;78.98
63447;BME280;49577;49.872;6.190;2023-07-31T02:37:16;99254.85;;;16.64;79.05
63447;BME280;49577;49.872;6.190;2023-07-31T02:39:41;99255.51;;;16.64;79.32
63447;BME280;49577;49.872;6.190;2023-07-31T02:42:06;99257.05;;;16.65;78.88
63447;BME280;49577;49.872;6.190;2023-07-31T02:44:31;99255.11;;;16.65;79.06
63447;BME280;49577;49.872;6.190;2023-07-31T02:46:57;99258.98;;;16.65;79.09
63447;BME280;49577;49.872;6.190;2023-07-31T02:49:22;99254.71;;;16.66;79.08
63447;BME280;49577;49.872;6.190;2023-07-31T02:51:47;99252.81;;;16.65;79.09
63447;BME280;49577;49.872;6.190;2023-07-31T02:54:12;99255.65;;;16.65;79.19
63447;BME280;49577;49.872;6.190;2023-07-31T02:56:37;99257.39;;;16.65;79.15
63447;BME280;49577;49.872;6.190;2023-07-31T02:59:03;99257.61;;;16.64;79.18
63447;BME280;49577;49.872;6.190;2023-07-31T03:01:28;99257.73;;;16.66;79.30
63447;BME280;49577;49.872;6.190;2023-07-31T03:03:53;99253.68;;;16.65;79.53
63447;BME280;49577;49.872;6.190;2023-07-31T03:06:18;99247.77;;;16.64;79.69
63447;BME280;49577;49.872;6.190;2023-07-31T03:08:43;99246.92;;;16.62;79.73
63447;BME280;49577;49.872;6.190;2023-07-31T03:11:09;99248.91;;;16.58;79.49
63447;BME280;49577;49.872;6.190;2023-07-31T03:13:34;99241.64;;;16.56;79.83
63447;BME280;49577;49.872;6.190;2023-07-31T03:15:59;99244.16;;;16.54;79.88
63447;BME280;49577;49.872;6.190;2023-07-31T03:18:24;99238.88;;;16.50;79.94
63447;BME280;49577;49.872;6.190;2023-07-31T03:20:50;99236.63;;;16.48;80.13
63447;BME280;49577;49.872;6.190;2023-07-31T03:23:15;99233.52;;;16.48;80.25
63447;BME280;49577;49.872;6.190;2023-07-31T03:25:41;99230.23;;;16.49;80.51
63447;BME280;49577;49.872;6.190;2023-07-31T03:28:19;99226.02;;;16.50;80.54
63447;BME280;49577;49.872;6.190;2023-07-31T03:30:45;99223.75;;;16.52;80.39
63447;BME280;49577;49.872;6.190;2023-07-31T03:33:10;99221.73;;;16.51;80.35
63447;BME280;49577;49.872;6.190;2023-07-31T03:35:35;99217.92;;;16.48;80.40
63447;BME280;49577;49.872;6.190;2023-07-31T03:38:00;99213.92;;;16.46;80.37
63447;BME280;49577;49.872;6.190;2023-07-31T03:40:25;99212.11;;;16.46;80.48
63447;BME280;49577;49.872;6.190;2023-07-31T03:42:51;99209.15;;;16.48;80.73
63447;BME280;49577;49.872;6.190;2023-07-31T03:45:16;99204.91;;;16.48;80.93
63447;BME280;49577;49.872;6.190;2023-07-31T03:47:41;99208.11;;;16.48;80.53
63447;BME280;49577;49.872;6.190;2023-07-31T03:50:06;99203.26;;;16.47;80.74
63447;BME280;49577;49.872;6.190;2023-07-31T03:52:32;99201.59;;;16.46;80.53
63447;BME280;49577;49.872;6.190;2023-07-31T03:54:57;99200.70;;;16.46;80.53
63447;BME280;49577;49.872;6.190;2023-07-31T03:57:22;99198.91;;;16.46;80.68
63447;BME280;49577;49.872;6.190;2023-07-31T03:59:48;99194.02;;;16.48;80.81
63447;BME280;49577;49.872;6.190;2023-07-31T04:02:13;99185.87;;;16.48;80.71
63447;BME280;49577;49.872;6.190;2023-07-31T04:04:39;99189.79;;;16.46;80.14
63447;BME280;49577;49.872;6.190;2023-07-31T04:07:04;99184.86;;;16.43;80.30
63447;BME280;49577;49.872;6.190;2023-07-31T04:09:29;99182.84;;;16.44;80.62
63447;BME280;49577;49.872;6.190;2023-07-31T04:11:54;99187.11;;;16.46;80.51
63447;BME280;49577;49.872;6.190;2023-07-31T04:14:20;99183.48;;;16.47;80.96
63447;BME280;49577;49.872;6.190;2023-07-31T04:16:45;99186.04;;;16.48;80.93
63447;BME280;49577;49.872;6.190;2023-07-31T04:19:10;99180.23;;;16.50;80.81
63447;BME280;49577;49.872;6.190;2023-07-31T04:21:35;99180.64;;;16.51;80.78
63447;BME280;49577;49.872;6.190;2023-07-31T04:24:01;99173.23;;;16.53;80.76
63447;BME280;49577;49.872;6.190;2023-07-31T04:26:26;99173.05;;;16.53;80.30
63447;BME280;49577;49.872;6.190;2023-07-31T04:28:51;99174.52;;;16.52;80.25
63447;BME280;49577;49.872;6.190;2023-07-31T04:31:16;99172.08;;;16.52;80.55
63447;BME280;49577;49.872;6.190;2023-07-31T04:33:42;99174.33;;;16.53;80.59
63447;BME280;49577;49.872;6.190;2023-07-31T04:36:07;99177.38;;;16.52;80.46
63447;BME280;49577;49.872;6.190;2023-07-31T04:38:32;99178.30;;;16.53;80.47
63447;BME280;49577;49.872;6.190;2023-07-31T04:40:57;99176.99;;;16.52;80.32
63447;BME280;49577;49.872;6.190;2023-07-31T04:43:23;99172.86;;;16.49;80.02
63447;BME280;49577;49.872;6.190;2023-07-31T04:45:48;99168.56;;;16.50;80.16
63447;BME280;49577;49.872;6.190;2023-07-31T04:48:13;99168.58;;;16.52;80.08
63447;BME280;49577;49.872;6.190;2023-07-31T04:50:39;99161.92;;;16.51;80.16
63447;BME280;49577;49.872;6.190;2023-07-31T04:53:04;99164.89;;;16.52;80.14
63447;BME280;49577;49.872;6.190;2023-07-31T04:55:29;99168.46;;;16.55;79.93
63447;BME280;49577;49.872;6.190;2023-07-31T04:57:55;99170.23;;;16.56;79.89
63447;BME280;49577;49.872;6.190;2023-07-31T05:00:20;99168.39;;;16.59;80.02
63447;BME280;49577;49.872;6.190;2023-07-31T05:02:45;99159.45;;;16.60;79.55
63447;BME280;49577;49.872;6.190;2023-07-31T05:05:10;99160.29;;;16.61;78.86
63447;BME280;49577;49.872;6.190;2023-07-31T05:07:35;99163.34;;;16.64;79.03
63447;BME280;49577;49.872;6.190;2023-07-31T05:10:01;99163.39;;;16.69;79.40
63447;BME280;49577;49.872;6.190;2023-07-31T05:12:27;99162.70;;;16.71;78.75
63447;BME280;49577;49.872;6.190;2023-07-31T05:14:52;99161.73;;;16.72;77.85
63447;BME280;49577;49.872;6.190;2023-07-31T05:17:17;99160.77;;;16.74;78.01
63447;BME280;49577;49.872;6.190;2023-07-31T05:19:42;99159.75;;;16.78;78.21
63447;BME280;49577;49.872;6.190;2023-07-31T05:22:08;99155.73;;;16.81;78.17
63447;BME280;49577;49.872;6.190;2023-07-31T05:24:33;99156.21;;;16.82;77.52
63447;BME280;49577;49.872;6.190;2023-07-31T05:26:58;99155.48;;;16.84;77.74
63447;BME280;49577;49.872;6.190;2023-07-31T05:29:23;99157.88;;;16.84;77.58
63447;BME280;49577;49.872;6.190;2023-07-31T05:31:49;99157.64;;;16.85;77.35
63447;BME280;49577;49.872;6.190;2023-07-31T05:34:14;99158.40;;;16.90;77.23
63447;BME280;49577;49.872;6.190;2023-07-31T05:36:39;99154.76;;;16.95;76.80
63447;BME280;49577;49.872;6.190;2023-07-31T05:39:04;99150.81;;;17.03;76.22
63447;BME280;49577;49.872;6.190;2023-07-31T05:41:33;99154.05;;;17.15;75.96
63447;BME280;49577;49.872;6.190;2023-07-31T05:43:58;99144.91;;;17.29;75.68
63447;BME280;49577;49.872;6.190;2023-07-31T05:46:23;99137.25;;;17.46;75.49
63447;BME280;49577;49.872;6.190;2023-07-31T05:48:48;99127.80;;;17.70;75.15
63447;BME280;49577;49.872;6.190;2023-07-31T05:51:14;99133.66;;;18.29;73.77
63447;BME280;49577;49.872;6.190;2023-07-31T05:53:39;99140.38;;;19.01;71.27
63447;BME280;49577;49.872;6.190;2023-07-31T05:56:05;99147.16;;;19.08;70.14
63447;BME280;49577;49.872;6.190;2023-07-31T05:58:31;99143.92;;;19.03;69.80
63447;BME280;49577;49.872;6.190;2023-07-31T06:00:56;99147.52;;;19.01;69.36
63447;BME280;49577;49.872;6.190;2023-07-31T06:03:21;99140.63;;;19.01;68.79
63447;BME280;49577;49.872;6.190;2023-07-31T06:05:46;99132.07;;;19.28;68.03
63447;BME280;49577;49.872;6.190;2023-07-31T06:08:11;99128.17;;;19.94;66.45
63447;BME280;49577;49.872;6.190;2023-07-31T06:10:36;99124.40;;;20.65;65.01
63447;BME280;49577;49.872;6.190;2023-07-31T06:13:02;99125.30;;;21.46;62.36
63447;BME280;49577;49.872;6.190;2023-07-31T06:15:27;99126.27;;;21.70;61.54
63447;BME280;49577;49.872;6.190;2023-07-31T06:17:52;99123.45;;;21.66;60.30
63447;BME280;49577;49.872;6.190;2023-07-31T06:20:17;99119.85;;;21.59;59.75
63447;BME280;49577;49.872;6.190;2023-07-31T06:22:43;99118.13;;;21.43;59.06
63447;BME280;49577;49.872;6.190;2023-07-31T06:25:08;99116.02;;;21.11;59.18
63447;BME280;49577;49.872;6.190;2023-07-31T06:27:33;99113.55;;;20.77;60.00
63447;BME280;49577;49.872;6.190;2023-07-31T06:29:58;99108.54;;;20.45;60.70
63447;BME280;49577;49.872;6.190;2023-07-31T06:32:24;99107.12;;;20.22;61.59
63447;BME280;49577;49.872;6.190;2023-07-31T06:34:49;99106.33;;;20.06;61.83
63447;BME280;49577;49.872;6.190;2023-07-31T06:37:14;99107.41;;;19.83;61.81
63447;BME280;49577;49.872;6.190;2023-07-31T06:39:39;99109.95;;;19.66;62.39
63447;BME280;49577;49.872;6.190;2023-07-31T06:42:05;99111.50;;;19.54;62.62
63447;BME280;49577;49.872;6.190;2023-07-31T06:44:30;99117.63;;;19.42;62.89
63447;BME280;49577;49.872;6.190;2023-07-31T06:46:55;99112.95;;;19.28;63.24
63447;BME280;49577;49.872;6.190;2023-07-31T06:49:20;99101.21;;;19.17;63.78
63447;BME280;49577;49.872;6.190;2023-07-31T06:51:46;99098.77;;;19.08;63.86
63447;BME280;49577;49.872;6.190;2023-07-31T06:54:11;99092.69;;;19.04;63.95
63447;BME280;49577;49.872;6.190;2023-07-31T06:56:36;99097.20;;;19.05;64.29
63447;BME280;49577;49.872;6.190;2023-07-31T06:59:01;99101.42;;;19.06;64.36
63447;BME280;49577;49.872;6.190;2023-07-31T07:01:27;99095.71;;;19.09;64.26
63447;BME280;49577;49.872;6.190;2023-07-31T07:03:53;99095.52;;;19.04;64.18
63447;BME280;49577;49.872;6.190;2023-07-31T07:06:18;99085.94;;;19.01;64.37
63447;BME280;49577;49.872;6.190;2023-07-31T07:08:44;99082.37;;;19.05;64.60
63447;BME280;49577;49.872;6.190;2023-07-31T07:11:09;99089.98;;;19.13;64.40
63447;BME280;49577;49.872;6.190;2023-07-31T07:13:34;99098.39;;;19.15;64.30
63447;BME280;49577;49.872;6.190;2023-07-31T07:16:00;99102.50;;;19.12;64.24
63447;BME280;49577;49.872;6.190;2023-07-31T07:18:25;99097.97;;;19.04;64.34
63447;BME280;49577;49.872;6.190;2023-07-31T07:20:50;99095.40;;;19.03;64.49
63447;BME280;49577;49.872;6.190;2023-07-31T07:23:16;99084.02;;;19.11;64.42
63447;BME280;49577;49.872;6.190;2023-07-31T07:25:42;99086.98;;;19.21;64.23
63447;BME280;49577;49.872;6.190;2023-07-31T07:28:07;99084.18;;;19.31;63.93
63447;BME280;49577;49.872;6.190;2023-07-31T07:30:32;99084.54;;;19.42;63.71
63447;BME280;49577;49.872;6.190;2023-07-31T07:32:58;99080.36;;;19.55;63.57
63447;BME280;49577;49.872;6.190;2023-07-31T07:35:23;99079.90;;;19.62;63.13
63447;BME280;49577;49.872;6.190;2023-07-31T07:37:48;99075.64;;;19.69;62.80
63447;BME280;49577;49.872;6.190;2023-07-31T07:40:15;99073.73;;;19.71;62.35
63447;BME280;49577;49.872;6.190;2023-07-31T07:42:40;99070.29;;;19.71;62.26
63447;BME280;49577;49.872;6.190;2023-07-31T07:45:05;99069.50;;;19.70;62.35
63447;BME280;49577;49.872;6.190;2023-07-31T07:47:31;99062.45;;;19.73;62.33
63447;BME280;49577;49.872;6.190;2023-07-31T07:49:56;99053.31;;;19.80;62.37
63447;BME280;49577;49.872;6.190;2023-07-31T07:52:21;99055.10;;;19.94;62.20
63447;BME280;49577;49.872;6.190;2023-07-31T07:54:46;99054.27;;;20.21;61.66
63447;BME280;49577;49.872;6.190;2023-07-31T07:57:12;99048.05;;;20.45;60.85
63447;BME280;49577;49.872;6.190;2023-07-31T07:59:37;99051.05;;;20.65;60.74
63447;BME280;49577;49.872;6.190;2023-07-31T08:02:02;99051.82;;;20.79;60.12
63447;BME280;49577;49.872;6.190;2023-07-31T08:04:27;99051.88;;;20.81;59.77
63447;BME280;49577;49.872;6.190;2023-07-31T08:06:52;99050.77;;;20.80;58.84
63447;BME280;49577;49.872;6.190;2023-07-31T08:09:18;99051.02;;;20.81;58.20
63447;BME280;49577;49.872;6.190;2023-07-31T08:11:43;99048.95;;;20.79;57.92
63447;BME280;49577;49.872;6.190;2023-07-31T08:14:08;99046.97;;;20.72;58.12
63447;BME280;49577;49.872;6.190;2023-07-31T08:16:33;99049.46;;;20.65;58.06
63447;BME280;49577;49.872;6.190;2023-07-31T08:18:58;99049.88;;;20.68;58.18
63447;BME280;49577;49.872;6.190;2023-07-31T08:21:24;99046.39;;;20.74;57.91
63447;BME280;49577;49.872;6.190;2023-07-31T08:23:49;99037.65;;;20.71;57.55
63447;BME280;49577;49.872;6.190;2023-07-31T08:26:15;99040.42;;;20.70;57.70
63447;BME280;49577;49.872;6.190;2023-07-31T08:28:41;99038.64;;;20.65;56.97
63447;BME280;49577;49.872;6.190;2023-07-31T08:31:06;99036.96;;;20.46;57.15
63447;BME280;49577;49.872;6.190;2023-07-31T08:33:31;99035.79;;;20.35;57.77
63447;BME280;49577;49.872;6.190;2023-07-31T08:35:56;99039.67;;;20.40;58.23
63447;BME280;49577;49.872;6.190;2023-07-31T08:38:22;99038.64;;;20.53;57.91
63447;BME280;49577;49.872;6.190;2023-07-31T08:40:50;99038.95;;;20.66;57.92
63447;BME280;49577;49.872;6.190;2023-07-31T08:43:15;99040.05;;;20.76;57.63
63447;BME280;49577;49.872;6.190;2023-07-31T08:45:41;99040.58;;;20.84;57.54
63447;BME280;49577;49.872;6.190;2023-07-31T08:48:07;99037.81;;;20.89;57.22
63447;BME280;49577;49.872;6.190;2023-07-31T08:50:32;99031.52;;;21.04;56.99
63447;BME280;49577;49.872;6.190;2023-07-31T08:52:57;99023.36;;;21.33;56.29
63447;BME280;49577;49.872;6.190;2023-07-31T08:55:22;99019.44;;;21.58;56.39
63447;BME280;49577;49.872;6.190;2023-07-31T08:57:50;99017.00;;;21.84;55.70
63447;BME280;49577;49.872;6.190;2023-07-31T09:00:16;99013.04;;;22.16;55.02
63447;BME280;49577;49.872;6.190;2023-07-31T09:02:45;99018.04;;;22.67;53.99
63447;BME280;49577;49.872;6.190;2023-07-31T09:05:11;99015.27;;;22.89;53.37
63447;BME280;49577;49.872;6.190;2023-07-31T09:07:37;99017.01;;;22.91;52.69
63447;BME280;49577;49.872;6.190;2023-07-31T09:10:03;99019.15;;;22.81;52.23
63447;BME280;49577;49.872;6.190;2023-07-31T09:12:28;99025.62;;;22.59;52.31
63447;BME280;49577;49.872;6.190;2023-07-31T09:14:53;99019.94;;;22.34;51.62
63447;BME280;49577;49.872;6.190;2023-07-31T09:22:38;99025.14;;;21.61;52.61
63447;BME280;49577;49.872;6.190;2023-07-31T09:25:13;99020.67;;;21.46;53.19
63447;BME280;49577;49.872;6.190;2023-07-31T09:27:46;99017.30;;;21.44;53.69
63447;BME280;49577;49.872;6.190;2023-07-31T09:30:11;99013.66;;;21.46;53.24
63447;BME280;49577;49.872;6.190;2023-07-31T09:32:36;99015.97;;;21.48;53.01
63447;BME280;49577;49.872;6.190;2023-07-31T09:35:12;99016.38;;;21.51;53.04
63447;BME280;49577;49.872;6.190;2023-07-31T09:37:37;99015.45;;;21.60;53.16
63447;BME280;49577;49.872;6.190;2023-07-31T09:40:02;99022.86;;;21.66;52.76
63447;BME280;49577;49.872;6.190;2023-07-31T09:42:28;99025.59;;;21.63;52.62
63447;BME280;49577;49.872;6.190;2023-07-31T09:44:55;99022.07;;;21.61;52.85
63447;BME280;49577;49.872;6.190;2023-07-31T09:47:31;99018.44;;;21.57;52.78
63447;BME280;49577;49.872;6.190;2023-07-31T09:49:56;99024.95;;;21.49;52.83
63447;BME280;49577;49.872;6.190;2023-07-31T09:52:21;99022.83;;;21.39;52.93
63447;BME280;49577;49.872;6.190;2023-07-31T09:54:47;99030.70;;;21.33;53.22
63447;BME280;49577;49.872;6.190;2023-07-31T09:57:12;99031.86;;;21.27;53.30
63447;BME280;49577;49.872;6.190;2023-07-31T09:59:38;99035.80;;;21.10;53.73
63447;BME280;49577;49.872;6.190;2023-07-31T10:02:04;99043.08;;;20.95;54.18
63447;BME280;49577;49.872;6.190;2023-07-31T10:04:33;99039.02;;;20.88;54.77
63447;BME280;49577;49.872;6.190;2023-07-31T10:06:58;99033.68;;;20.84;55.12
63447;BME280;49577;49.872;6.190;2023-07-31T10:09:25;99035.05;;;20.84;55.54
63447;BME280;49577;49.872;6.190;2023-07-31T10:11:53;99026.73;;;20.93;55.56
63447;BME280;49577;49.872;6.190;2023-07-31T10:14:21;99028.36;;;21.22;55.73
63447;BME280;49577;49.872;6.190;2023-07-31T10:16:47;99028.44;;;21.57;54.84
63447;BME280;49577;49.872;6.190;2023-07-31T10:19:12;99026.46;;;21.61;54.70
63447;BME280;49577;49.872;6.190;2023-07-31T10:21:37;99028.20;;;21.84;55.00
63447;BME280;49577;49.872;6.190;2023-07-31T10:24:05;99030.11;;;22.18;54.86
63447;BME280;49577;49.872;6.190;2023-07-31T10:26:31;99034.69;;;22.41;53.78
63447;BME280;49577;49.872;6.190;2023-07-31T10:28:58;99038.79;;;22.44;53.36
63447;BME280;49577;49.872;6.190;2023-07-31T10:31:23;99039.91;;;22.38;53.09
63447;BME280;49577;49.872;6.190;2023-07-31T10:33:49;99043.97;;;22.22;53.27
63447;BME280;49577;49.872;6.190;2023-07-31T10:36:18;99048.90;;;22.09;53.39
63447;BME280;49577;49.872;6.190;2023-07-31T10:38:44;99049.80;;;22.07;53.62
63447;BME280;49577;49.872;6.190;2023-07-31T10:41:09;99047.34;;;21.98;54.04
63447;BME280;49577;49.872;6.190;2023-07-31T10:43:36;99048.70;;;21.85;54.50
63447;BME280;49577;49.872;6.190;2023-07-31T10:46:05;99060.55;;;21.65;54.62
63447;BME280;49577;49.872;6.190;2023-07-31T10:48:32;99054.64;;;21.31;55.19
63447;BME280;49577;49.872;6.190;2023-07-31T10:50:58;99054.97;;;21.03;56.08
63447;BME280;49577;49.872;6.190;2023-07-31T10:55:49;99053.84;;;20.61;57.55
63447;BME280;49577;49.872;6.190;2023-07-31T10:58:17;99058.20;;;20.41;57.91
63447;BME280;49577;49.872;6.190;2023-07-31T11:00:43;99056.61;;;20.19;58.66
63447;BME280;49577;49.872;6.190;2023-07-31T11:03:15;99052.23;;;19.98;59.18
63447;BME280;49577;49.872;6.190;2023-07-31T11:05:42;99051.56;;;19.84;59.71
63447;BME280;49577;49.872;6.190;2023-07-31T11:10:39;99051.15;;;19.71;60.62
63447;BME280;49577;49.872;6.190;2023-07-31T11:13:04;99045.24;;;19.71;60.96
63447;BME280;49577;49.872;6.190;2023-07-31T11:15:30;99047.30;;;19.80;61.26
63447;BME280;49577;49.872;6.190;2023-07-31T11:17:55;99052.09;;;19.88;61.15
63447;BME280;49577;49.872;6.190;2023-07-31T11:20:23;99055.04;;;19.95;61.12
63447;BME280;49577;49.872;6.190;2023-07-31T11:22:49;99047.73;;;20.08;61.17
63447;BME280;49577;49.872;6.190;2023-07-31T11:25:14;99058.73;;;20.27;61.16
63447;BME280;49577;49.872;6.190;2023-07-31T11:27:39;99055.98;;;20.34;60.59
63447;BME280;49577;49.872;6.190;2023-07-31T11:30:08;99057.46;;;20.38;60.40
63447;BME280;49577;49.872;6.190;2023-07-31T11:32:36;99054.79;;;20.26;60.15
63447;BME280;49577;49.872;6.190;2023-07-31T11:35:01;99056.56;;;20.08;60.65
63447;BME280;49577;49.872;6.190;2023-07-31T11:37:40;99053.20;;;19.97;60.82
63447;BME280;49577;49.872;6.190;2023-07-31T11:40:06;99054.39;;;19.83;61.51
63447;BME280;49577;49.872;6.190;2023-07-31T11:42:32;99058.23;;;19.69;61.72
63447;BME280;49577;49.872;6.190;2023-07-31T11:44:57;99059.04;;;19.54;62.16
63447;BME280;49577;49.872;6.190;2023-07-31T11:47:22;99056.12;;;19.38;62.41
63447;BME280;49577;49.872;6.190;2023-07-31T11:49:47;99050.27;;;19.28;62.97
63447;BME280;49577;49.872;6.190;2023-07-31T11:52:14;99045.13;;;19.26;63.04
63447;BME280;49577;49.872;6.190;2023-07-31T11:54:40;99050.83;;;19.29;63.50
63447;BME280;49577;49.872;6.190;2023-07-31T11:57:05;99050.44;;;19.28;64.14
63447;BME280;49577;49.872;6.190;2023-07-31T11:59:31;99050.64;;;19.26;65.13
63447;BME280;49577;49.872;6.190;2023-07-31T12:01:56;99046.55;;;19.28;64.87
63447;BME280;49577;49.872;6.190;2023-07-31T12:04:21;99042.77;;;19.25;64.86
63447;BME280;49577;49.872;6.190;2023-07-31T12:06:48;99040.55;;;19.36;64.96
63447;BME280;49577;49.872;6.190;2023-07-31T12:09:15;99041.03;;;19.59;64.78
63447;BME280;49577;49.872;6.190;2023-07-31T12:11:44;99036.28;;;19.83;64.38
63447;BME280;49577;49.872;6.190;2023-07-31T12:14:19;99029.95;;;20.04;63.75
63447;BME280;49577;49.872;6.190;2023-07-31T12:16:44;99024.04;;;20.14;63.40
63447;BME280;49577;49.872;6.190;2023-07-31T12:19:09;99024.52;;;20.30;62.99
63447;BME280;49577;49.872;6.190;2023-07-31T12:21:35;99015.67;;;20.49;62.86
63447;BME280;49577;49.872;6.190;2023-07-31T12:24:00;99013.50;;;20.65;62.12
63447;BME280;49577;49.872;6.190;2023-07-31T12:26:33;99003.77;;;20.72;61.65
63447;BME280;49577;49.872;6.190;2023-07-31T12:28:59;98994.66;;;20.71;61.52
63447;BME280;49577;49.872;6.190;2023-07-31T12:31:25;98982.95;;;20.71;61.38
63447;BME280;49577;49.872;6.190;2023-07-31T12:33:52;98977.27;;;20.80;61.13
63447;BME280;49577;49.872;6.190;2023-07-31T12:36:21;98985.41;;;20.87;60.61
63447;BME280;49577;49.872;6.190;2023-07-31T12:38:46;98976.25;;;20.83;60.31
63447;BME280;49577;49.872;6.190;2023-07-31T12:41:12;98975.81;;;20.70;60.67
63447;BME280;49577;49.872;6.190;2023-07-31T12:43:37;98982.56;;;20.58;60.81
63447;BME280;49577;49.872;6.190;2023-07-31T12:46:03;98984.58;;;20.44;61.07
63447;BME280;49577;49.872;6.190;2023-07-31T12:48:29;98979.89;;;20.31;61.45
63447;BME280;49577;49.872;6.190;2023-07-31T12:50:54;98980.52;;;20.15;61.55
63447;BME280;49577;49.872;6.190;2023-07-31T12:53:20;98972.27;;;19.98;62.04
63447;BME280;49577;49.872;6.190;2023-07-31T12:55:45;98968.42;;;19.94;62.48
63447;BME280;49577;49.872;6.190;2023-07-31T12:58:10;98976.02;;;19.93;62.32
63447;BME280;49577;49.872;6.190;2023-07-31T13:00:35;98976.23;;;19.88;62.50
63447;BME280;49577;49.872;6.190;2023-07-31T13:03:01;98967.57;;;19.84;62.86
63447;BME280;49577;49.872;6.190;2023-07-31T13:05:26;98959.04;;;19.72;63.03
63447;BME280;49577;49.872;6.190;2023-07-31T13:07:52;98945.86;;;19.79;63.46